Time;durP1;ratioP1;P1;durP2;ratioP2;P2;SDS_P1;SDS_P2;PMS_P1;PMS_P2;Temp;Humidity;BMP_temperature;BMP_pressure;BME280_temperature;BME280_humidity;BME280_pressure;Samples;Min_cycle;Max_cycle;Signal;HPM_P1;HPM_P2
2022/07/23 00:02:00;;;;;;;6.85;6.25;;;;;;;;;;5077745;28;20107;-69
2022/07/23 00:04:26;;;;;;;6.43;5.82;;;;;;;;;;5077580;28;20021;-69
2022/07/23 00:06:53;;;;;;;7.05;6.43;;;;;;;;;;5077416;28;20390;-72
2022/07/23 00:09:18;;;;;;;7.80;7.15;;;;;;;;;;5077786;28;20033;-71
2022/07/23 00:11:43;;;;;;;7.55;6.95;;;;;;;;;;5077433;28;20074;-72
2022/07/23 00:14:09;;;;;;;7.75;7.03;;;;;;;;;;5059768;28;20052;-72
2022/07/23 00:16:34;;;;;;;8.35;7.55;;;;;;;;;;5076954;28;20438;-72
2022/07/23 00:19:02;;;;;;;8.27;7.18;;;;;;;;;;5077498;28;20028;-70
2022/07/23 00:21:27;;;;;;;7.57;6.82;;;;;;;;;;5077215;28;20032;-69
2022/07/23 00:23:53;;;;;;;9.88;7.00;;;;;;;;;;5077011;28;20392;-69
2022/07/23 00:26:18;;;;;;;6.95;6.40;;;;;;;;;;5077133;28;20036;-69
2022/07/23 00:28:44;;;;;;;6.60;6.07;;;;;;;;;;5077208;28;20032;-72
2022/07/23 00:31:09;;;;;;;7.25;6.07;;;;;;;;;;5076982;28;20028;-72
2022/07/23 00:33:35;;;;;;;6.90;6.20;;;;;;;;;;5059011;28;20012;-72
2022/07/23 00:36:00;;;;;;;6.82;6.30;;;;;;;;;;5076821;28;20028;-72
2022/07/23 00:38:25;;;;;;;6.68;6.00;;;;;;;;;;5058870;28;20023;-72
2022/07/23 00:40:51;;;;;;;6.55;6.05;;;;;;;;;;5058485;28;20075;-72
2022/07/23 00:43:16;;;;;;;6.55;5.95;;;;;;;;;;5076686;28;20016;-72
2022/07/23 00:45:42;;;;;;;7.00;6.40;;;;;;;;;;5076761;28;20035;-72
2022/07/23 00:48:07;;;;;;;7.03;6.45;;;;;;;;;;5076742;28;20092;-72
2022/07/23 00:50:33;;;;;;;7.85;7.13;;;;;;;;;;5058927;28;20025;-72
2022/07/23 00:52:58;;;;;;;9.07;8.27;;;;;;;;;;5059136;28;20025;-72
2022/07/23 00:55:24;;;;;;;9.52;7.85;;;;;;;;;;5076477;28;20056;-73
2022/07/23 00:57:50;;;;;;;9.80;9.00;;;;;;;;;;5058913;28;20031;-72
2022/07/23 01:00:15;;;;;;;9.77;8.98;;;;;;;;;;5058382;28;20028;-70
2022/07/23 01:02:41;;;;;;;9.93;9.13;;;;;;;;;;5076561;28;20475;-70
2022/07/23 01:05:07;;;;;;;8.90;8.20;;;;;;;;;;5076217;28;20032;-70
2022/07/23 01:07:34;;;;;;;8.52;7.70;;;;;;;;;;5058601;28;20012;-70
2022/07/23 01:10:00;;;;;;;8.85;8.15;;;;;;;;;;5058589;28;20016;-70
2022/07/23 01:12:25;;;;;;;10.30;8.38;;;;;;;;;;5076254;28;20039;-69
2022/07/23 01:14:58;;;;;;;10.60;9.45;;;;;;;;;;5076420;28;20029;-69
2022/07/23 01:17:24;;;;;;;10.60;9.60;;;;;;;;;;5075822;28;20036;-69
2022/07/23 01:19:50;;;;;;;7.65;7.00;;;;;;;;;;5058206;28;20528;-69
2022/07/23 01:22:17;;;;;;;7.60;7.00;;;;;;;;;;5057671;28;20362;-69
2022/07/23 01:24:43;;;;;;;8.98;8.15;;;;;;;;;;5058029;28;20111;-69
2022/07/23 01:27:09;;;;;;;9.57;8.68;;;;;;;;;;5058057;28;20466;-71
2022/07/23 01:29:36;;;;;;;8.95;8.05;;;;;;;;;;5057791;28;20024;-69
2022/07/23 01:32:06;;;;;;;6.97;6.47;;;;;;;;;;5058177;28;20128;-72
2022/07/23 01:34:31;;;;;;;7.38;6.78;;;;;;;;;;5057584;28;20535;-72
2022/07/23 01:36:57;;;;;;;9.55;8.55;;;;;;;;;;5057523;28;20119;-72
2022/07/23 01:39:22;;;;;;;9.70;8.80;;;;;;;;;;5058200;28;20021;-72
2022/07/23 01:41:49;;;;;;;8.65;7.93;;;;;;;;;;5057841;28;20123;-72
2022/07/23 01:44:15;;;;;;;8.05;7.38;;;;;;;;;;5057416;28;20485;-72
2022/07/23 01:46:41;;;;;;;8.38;7.70;;;;;;;;;;5057962;28;20055;-72
2022/07/23 01:49:07;;;;;;;9.43;8.63;;;;;;;;;;5057404;28;20016;-72
2022/07/23 01:51:35;;;;;;;11.00;9.07;;;;;;;;;;5075666;28;20037;-72
2022/07/23 01:54:05;;;;;;;9.07;7.40;;;;;;;;;;5057264;28;20101;-72
2022/07/23 01:56:31;;;;;;;7.45;6.95;;;;;;;;;;5057722;28;20036;-72
2022/07/23 01:58:56;;;;;;;10.82;7.38;;;;;;;;;;5057472;28;20020;-72
2022/07/23 02:01:22;;;;;;;8.15;7.35;;;;;;;;;;5040534;28;20431;-72
2022/07/23 02:03:47;;;;;;;7.10;6.50;;;;;;;;;;5074971;28;20020;-70
2022/07/23 02:06:13;;;;;;;7.80;6.85;;;;;;;;;;5057283;28;20021;-70
2022/07/23 02:08:38;;;;;;;7.55;6.95;;;;;;;;;;5057562;28;20035;-70
2022/07/23 02:11:04;;;;;;;8.55;7.82;;;;;;;;;;5057473;28;20083;-70
2022/07/23 02:13:32;;;;;;;8.20;7.50;;;;;;;;;;5074710;28;20104;-70
2022/07/23 02:15:57;;;;;;;7.55;6.95;;;;;;;;;;5056981;28;20056;-73
2022/07/23 02:18:22;;;;;;;7.18;6.65;;;;;;;;;;5057236;28;20363;-72
2022/07/23 02:20:50;;;;;;;7.07;6.57;;;;;;;;;;5075152;28;20039;-72
2022/07/23 02:23:16;;;;;;;7.20;6.60;;;;;;;;;;5056761;28;20135;-72
2022/07/23 02:25:41;;;;;;;6.75;6.25;;;;;;;;;;5057167;28;20045;-72
2022/07/23 02:28:07;;;;;;;8.10;6.95;;;;;;;;;;5056932;28;20020;-72
2022/07/23 02:30:32;;;;;;;7.75;7.05;;;;;;;;;;5040411;28;20031;-70
2022/07/23 02:32:58;;;;;;;7.65;7.05;;;;;;;;;;5056840;28;20388;-69
2022/07/23 02:35:24;;;;;;;7.65;7.05;;;;;;;;;;5056811;28;20032;-70
2022/07/23 02:37:49;;;;;;;7.50;6.88;;;;;;;;;;5056495;28;20524;-70
2022/07/23 02:40:15;;;;;;;7.82;7.13;;;;;;;;;;5056815;28;20115;-70
2022/07/23 02:42:42;;;;;;;7.85;7.25;;;;;;;;;;5056173;28;20019;-69
2022/07/23 02:45:08;;;;;;;8.75;8.02;;;;;;;;;;5039688;28;20419;-69
2022/07/23 02:47:33;;;;;;;7.85;6.63;;;;;;;;;;5039797;28;20103;-69
2022/07/23 02:50:00;;;;;;;7.88;7.18;;;;;;;;;;5056241;28;20510;-69
2022/07/23 02:52:26;;;;;;;7.07;6.47;;;;;;;;;;5056421;28;20017;-69
2022/07/23 02:54:52;;;;;;;7.28;6.68;;;;;;;;;;5074467;28;20035;-69
2022/07/23 02:57:17;;;;;;;8.35;7.57;;;;;;;;;;5056448;28;20384;-71
2022/07/23 02:59:42;;;;;;;8.15;7.50;;;;;;;;;;5039895;28;20469;-72
2022/07/23 03:02:08;;;;;;;8.07;7.40;;;;;;;;;;5074280;28;20365;-72
2022/07/23 03:04:33;;;;;;;8.48;7.78;;;;;;;;;;5074230;28;20036;-72
2022/07/23 03:06:59;;;;;;;7.80;7.15;;;;;;;;;;5056521;28;20019;-72
2022/07/23 03:09:24;;;;;;;8.48;7.68;;;;;;;;;;5055819;28;20438;-72
2022/07/23 03:11:51;;;;;;;7.95;7.30;;;;;;;;;;5056265;28;20400;-71
2022/07/23 03:14:18;;;;;;;8.40;7.72;;;;;;;;;;5056118;28;20044;-72
2022/07/23 03:16:44;;;;;;;8.82;8.13;;;;;;;;;;5056214;28;20024;-72
2022/07/23 03:19:09;;;;;;;9.48;8.52;;;;;;;;;;5055993;28;20107;-69
2022/07/23 03:21:38;;;;;;;9.38;8.57;;;;;;;;;;5056131;28;20107;-69
2022/07/23 03:24:04;;;;;;;10.45;8.98;;;;;;;;;;5073458;28;20087;-69
2022/07/23 03:26:29;;;;;;;13.23;8.80;;;;;;;;;;5038581;28;20067;-69
2022/07/23 03:28:55;;;;;;;8.43;7.65;;;;;;;;;;5055570;28;20032;-72
2022/07/23 03:31:20;;;;;;;10.73;9.00;;;;;;;;;;5039508;28;20017;-72
2022/07/23 03:33:46;;;;;;;10.00;9.10;;;;;;;;;;5055766;28;20071;-72
2022/07/23 03:36:11;;;;;;;9.18;8.45;;;;;;;;;;5056182;28;20108;-72
2022/07/23 03:38:40;;;;;;;8.25;7.45;;;;;;;;;;5055838;28;20056;-72
2022/07/23 03:41:06;;;;;;;8.68;7.95;;;;;;;;;;5074086;28;20048;-72
2022/07/23 03:43:32;;;;;;;9.10;8.20;;;;;;;;;;5055901;28;20050;-72
2022/07/23 03:45:57;;;;;;;9.07;8.23;;;;;;;;;;5055903;28;20021;-73
2022/07/23 03:48:23;;;;;;;8.85;8.05;;;;;;;;;;5055838;28;20481;-72
2022/07/23 03:50:48;;;;;;;8.70;8.00;;;;;;;;;;5073589;28;20107;-72
2022/07/23 03:53:14;;;;;;;8.65;7.90;;;;;;;;;;5055682;28;20029;-72
2022/07/23 03:55:39;;;;;;;8.43;7.72;;;;;;;;;;5038729;28;20020;-72
2022/07/23 03:58:05;;;;;;;8.98;7.75;;;;;;;;;;5055602;28;20033;-72
2022/07/23 04:00:30;;;;;;;8.93;8.07;;;;;;;;;;5038924;28;20089;-70
2022/07/23 04:02:56;;;;;;;10.13;8.00;;;;;;;;;;5055212;28;20028;-69
2022/07/23 04:05:21;;;;;;;8.77;8.07;;;;;;;;;;5055138;28;20525;-69
2022/07/23 04:07:51;;;;;;;10.47;9.53;;;;;;;;;;5055337;28;20102;-69
2022/07/23 04:10:17;;;;;;;16.50;11.00;;;;;;;;;;5038604;28;20021;-68
2022/07/23 04:12:42;;;;;;;10.95;9.90;;;;;;;;;;5055505;28;20387;-68
2022/07/23 04:15:08;;;;;;;10.43;9.32;;;;;;;;;;5073683;28;20019;-68
2022/07/23 04:17:34;;;;;;;10.85;9.68;;;;;;;;;;5055743;28;20475;-68
2022/07/23 04:20:00;;;;;;;10.60;9.70;;;;;;;;;;5055752;28;20029;-68
2022/07/23 04:22:32;;;;;;;10.98;9.85;;;;;;;;;;5055086;28;20085;-68
2022/07/23 04:24:58;;;;;;;10.20;9.30;;;;;;;;;;5055825;28;20132;-68
2022/07/23 04:27:23;;;;;;;8.77;8.05;;;;;;;;;;5055023;28;20066;-68
2022/07/23 04:29:49;;;;;;;9.43;7.90;;;;;;;;;;5055448;28;20036;-68
2022/07/23 04:32:14;;;;;;;8.50;7.80;;;;;;;;;;5055734;28;20500;-69
2022/07/23 04:34:40;;;;;;;9.20;7.38;;;;;;;;;;5055487;28;20025;-69
2022/07/23 04:37:06;;;;;;;8.77;7.65;;;;;;;;;;5053192;28;20166;-68
2022/07/23 04:39:32;;;;;;;8.73;7.90;;;;;;;;;;5058785;28;20044;-68
2022/07/23 04:41:58;;;;;;;8.98;8.18;;;;;;;;;;5042309;28;20433;-70
2022/07/23 04:44:23;;;;;;;8.40;7.57;;;;;;;;;;5058669;28;20037;-70
2022/07/23 04:46:50;;;;;;;8.82;8.07;;;;;;;;;;5058735;28;20395;-70
2022/07/23 04:49:15;;;;;;;9.13;8.02;;;;;;;;;;5058475;28;20035;-70
2022/07/23 04:51:41;;;;;;;8.07;6.88;;;;;;;;;;5058500;28;20059;-70
2022/07/23 04:54:06;;;;;;;7.18;6.57;;;;;;;;;;5057766;28;20128;-70
2022/07/23 04:56:33;;;;;;;7.28;6.68;;;;;;;;;;5057296;28;20064;-70
2022/07/23 04:58:58;;;;;;;7.45;6.75;;;;;;;;;;5075308;28;20064;-69
2022/07/23 05:01:24;;;;;;;7.72;7.10;;;;;;;;;;5057188;28;20025;-70
2022/07/23 05:03:49;;;;;;;9.20;8.32;;;;;;;;;;5057117;28;20033;-70
2022/07/23 05:06:15;;;;;;;12.48;8.82;;;;;;;;;;5057217;28;20506;-70
2022/07/23 05:08:40;;;;;;;9.80;7.32;;;;;;;;;;5075442;28;20032;-70
2022/07/23 05:11:06;;;;;;;8.25;7.50;;;;;;;;;;5058009;28;20066;-69
2022/07/23 05:13:31;;;;;;;7.97;7.28;;;;;;;;;;5058383;28;20028;-69
2022/07/23 05:15:57;;;;;;;8.52;7.72;;;;;;;;;;5041492;28;20044;-69
2022/07/23 05:18:23;;;;;;;9.70;6.95;;;;;;;;;;5058071;28;20036;-69
2022/07/23 05:20:50;;;;;;;8.70;7.80;;;;;;;;;;5057727;28;20111;-69
2022/07/23 05:23:18;;;;;;;8.45;7.07;;;;;;;;;;5057740;28;20048;-69
2022/07/23 05:25:44;;;;;;;8.18;7.50;;;;;;;;;;5058340;28;20043;-70
2022/07/23 05:28:10;;;;;;;9.48;7.13;;;;;;;;;;5057684;28;20029;-70
2022/07/23 05:30:36;;;;;;;8.00;7.32;;;;;;;;;;5057703;28;20425;-68
2022/07/23 05:33:06;;;;;;;7.22;6.63;;;;;;;;;;5058303;28;20383;-69
2022/07/23 05:35:32;;;;;;;7.20;6.60;;;;;;;;;;5057939;28;20455;-68
2022/07/23 05:38:12;;;;;;;8.60;7.18;;;;;;;;;;5042951;28;20411;-69
2022/07/23 05:40:38;;;;;;;7.55;6.85;;;;;;;;;;5057738;28;20032;-69
2022/07/23 05:43:03;;;;;;;7.95;7.25;;;;;;;;;;5075649;28;20025;-69
2022/07/23 05:45:29;;;;;;;7.43;6.82;;;;;;;;;;5057271;28;20055;-68
2022/07/23 05:47:55;;;;;;;7.82;7.13;;;;;;;;;;5055888;28;20021;-69
2022/07/23 05:50:30;;;;;;;7.50;6.85;;;;;;;;;;5056694;28;20028;-69
2022/07/23 05:53:01;;;;;;;7.43;6.85;;;;;;;;;;5056980;28;20036;-69
2022/07/23 05:55:28;;;;;;;7.40;6.75;;;;;;;;;;5075078;28;20032;-69
2022/07/23 05:57:57;;;;;;;7.60;6.90;;;;;;;;;;5056784;28;20024;-68
2022/07/23 06:00:23;;;;;;;7.15;6.55;;;;;;;;;;5056268;28;20047;-69
2022/07/23 06:02:49;;;;;;;7.50;6.88;;;;;;;;;;5074668;28;20468;-69
2022/07/23 06:05:16;;;;;;;7.20;6.50;;;;;;;;;;5056572;28;20033;-69
2022/07/23 06:07:42;;;;;;;7.82;7.22;;;;;;;;;;5040152;28;20069;-69
2022/07/23 06:10:08;;;;;;;8.52;7.82;;;;;;;;;;5056133;28;20021;-69
2022/07/23 06:12:33;;;;;;;7.63;6.95;;;;;;;;;;5055669;28;20016;-72
2022/07/23 06:14:59;;;;;;;8.68;7.93;;;;;;;;;;5055764;28;20033;-72
2022/07/23 06:17:26;;;;;;;8.45;7.05;;;;;;;;;;5056004;28;20025;-72
2022/07/23 06:19:52;;;;;;;8.05;7.25;;;;;;;;;;5055623;28;20155;-71
2022/07/23 06:22:17;;;;;;;7.95;7.15;;;;;;;;;;5073342;28;20132;-72
2022/07/23 06:24:43;;;;;;;10.05;7.70;;;;;;;;;;5055398;28;20543;-72
2022/07/23 06:27:08;;;;;;;8.50;7.70;;;;;;;;;;5073433;28;20043;-72
2022/07/23 06:29:34;;;;;;;7.40;6.80;;;;;;;;;;5055433;28;20024;-72
2022/07/23 06:31:59;;;;;;;9.57;6.82;;;;;;;;;;5055418;28;20050;-72
2022/07/23 06:34:25;;;;;;;8.57;7.78;;;;;;;;;;5073215;28;20392;-72
2022/07/23 06:36:50;;;;;;;10.75;7.72;;;;;;;;;;5073243;28;20012;-72
2022/07/23 06:39:15;;;;;;;7.95;6.93;;;;;;;;;;5073236;28;20031;-72
2022/07/23 06:41:45;;;;;;;8.93;7.87;;;;;;;;;;5055330;28;20043;-72
2022/07/23 06:44:10;;;;;;;8.48;7.68;;;;;;;;;;5055183;28;20373;-72
2022/07/23 06:46:36;;;;;;;8.48;7.78;;;;;;;;;;5055777;28;20021;-72
2022/07/23 06:49:01;;;;;;;8.40;6.45;;;;;;;;;;5055088;28;20472;-72
2022/07/23 06:51:28;;;;;;;8.20;7.50;;;;;;;;;;5055129;28;20013;-72
2022/07/23 06:53:53;;;;;;;10.80;8.15;;;;;;;;;;5073254;28;20028;-72
2022/07/23 06:56:20;;;;;;;9.07;7.68;;;;;;;;;;5055085;28;20456;-72
2022/07/23 06:58:45;;;;;;;6.25;5.80;;;;;;;;;;5054863;28;20387;-73
2022/07/23 07:01:11;;;;;;;7.70;6.88;;;;;;;;;;5070855;28;20016;-72
2022/07/23 07:03:36;;;;;;;7.38;6.80;;;;;;;;;;5063651;28;20532;-72
2022/07/23 07:06:02;;;;;;;8.85;7.43;;;;;;;;;;5068725;28;20154;-72
2022/07/23 07:08:28;;;;;;;8.88;7.22;;;;;;;;;;5068810;28;20025;-70
2022/07/23 07:10:53;;;;;;;8.57;7.35;;;;;;;;;;5050825;28;20380;-68
2022/07/23 07:13:19;;;;;;;7.97;7.28;;;;;;;;;;5068207;28;20040;-68
2022/07/23 07:15:44;;;;;;;7.82;7.13;;;;;;;;;;5068412;28;20491;-68
2022/07/23 07:18:10;;;;;;;7.35;6.75;;;;;;;;;;5068345;28;20036;-68
2022/07/23 07:20:35;;;;;;;7.30;6.60;;;;;;;;;;5069415;28;20028;-68
2022/07/23 07:23:01;;;;;;;6.85;6.22;;;;;;;;;;5067988;28;20114;-68
2022/07/23 07:25:26;;;;;;;6.60;6.00;;;;;;;;;;5068503;28;20032;-69
2022/07/23 07:27:51;;;;;;;8.45;6.05;;;;;;;;;;5050342;28;20522;-71
2022/07/23 07:30:17;;;;;;;6.00;5.50;;;;;;;;;;5068853;28;20034;-71
2022/07/23 07:32:42;;;;;;;6.40;5.80;;;;;;;;;;5067955;28;20031;-70
2022/07/23 07:35:08;;;;;;;5.70;5.20;;;;;;;;;;5068525;28;20388;-69
2022/07/23 07:37:34;;;;;;;5.53;5.10;;;;;;;;;;5069065;28;20024;-71
2022/07/23 07:39:59;;;;;;;6.63;5.82;;;;;;;;;;5068976;28;20550;-71
2022/07/23 07:42:25;;;;;;;6.40;5.82;;;;;;;;;;5068530;28;20029;-71
2022/07/23 07:44:50;;;;;;;5.35;4.95;;;;;;;;;;5068413;28;20028;-71
2022/07/23 07:47:15;;;;;;;5.85;5.13;;;;;;;;;;5068141;28;20027;-71
2022/07/23 07:49:41;;;;;;;5.63;5.18;;;;;;;;;;5050391;28;20025;-69
2022/07/23 07:52:07;;;;;;;6.20;5.60;;;;;;;;;;5068097;28;20017;-69
2022/07/23 07:54:32;;;;;;;5.63;4.95;;;;;;;;;;5049897;28;20427;-68
2022/07/23 07:56:58;;;;;;;6.72;6.15;;;;;;;;;;5067436;28;20551;-68
2022/07/23 07:59:23;;;;;;;6.65;6.10;;;;;;;;;;5067710;28;20036;-68
2022/07/23 08:01:49;;;;;;;6.63;6.03;;;;;;;;;;5067868;28;20028;-68
2022/07/23 08:04:14;;;;;;;6.18;5.72;;;;;;;;;;5033813;28;20041;-68
2022/07/23 08:06:39;;;;;;;7.38;6.68;;;;;;;;;;5068359;28;20718;-68
2022/07/23 08:09:05;;;;;;;7.00;6.40;;;;;;;;;;5049896;28;20028;-68
2022/07/23 08:11:30;;;;;;;7.10;6.50;;;;;;;;;;5069673;28;20020;-68
2022/07/23 08:13:56;;;;;;;7.15;6.47;;;;;;;;;;5072081;28;20029;-70
2022/07/23 08:16:21;;;;;;;12.13;7.10;;;;;;;;;;5070939;28;20017;-69
2022/07/23 08:18:46;;;;;;;7.93;6.68;;;;;;;;;;5071711;28;20024;-69
2022/07/23 08:21:12;;;;;;;6.70;6.10;;;;;;;;;;5071319;28;20016;-69
2022/07/23 08:23:37;;;;;;;10.57;7.10;;;;;;;;;;5071197;28;20551;-69
2022/07/23 08:26:03;;;;;;;7.18;6.47;;;;;;;;;;5053295;28;20044;-69
2022/07/23 08:28:28;;;;;;;7.28;6.57;;;;;;;;;;5071807;28;20059;-69
2022/07/23 08:30:54;;;;;;;7.07;6.57;;;;;;;;;;5071340;28;20086;-69
2022/07/23 08:33:19;;;;;;;6.72;6.22;;;;;;;;;;5071315;28;20032;-69
2022/07/23 08:35:46;;;;;;;5.45;4.95;;;;;;;;;;5053861;28;20029;-69
2022/07/23 08:38:13;;;;;;;6.93;6.32;;;;;;;;;;5070642;28;20036;-69
2022/07/23 08:40:43;;;;;;;6.63;6.10;;;;;;;;;;5071434;28;20029;-69
2022/07/23 08:43:09;;;;;;;5.63;5.22;;;;;;;;;;5075159;28;20111;-69
2022/07/23 08:45:36;;;;;;;6.25;5.75;;;;;;;;;;5076713;28;20024;-69
2022/07/23 08:51:06;;;;;;;6.57;6.00;;;;;;;;;;5072708;28;20540;-69
2022/07/23 08:53:53;;;;;;;8.05;6.13;;;;;;;;;;5076318;28;20017;-69
2022/07/23 08:59:53;;;;;;;7.00;6.50;;;;;;;;;;5076224;28;20404;-68
2022/07/23 09:05:55;;;;;;;7.13;6.50;;;;;;;;;;5076046;28;20537;-65
2022/07/23 09:12:06;;;;;;;6.63;6.00;;;;;;;;;;5076291;28;20024;-63
2022/07/23 09:18:07;;;;;;;6.38;5.88;;;;;;;;;;5075940;28;20031;-63
2022/07/23 09:27:57;;;;;;;7.25;6.53;;;;;;;;;;5076000;28;20027;-64
2022/07/23 09:34:08;;;;;;;6.28;5.70;;;;;;;;;;5075890;28;20024;-63
2022/07/23 09:40:11;;;;;;;5.82;5.32;;;;;;;;;;5075766;28;20082;-63
2022/07/23 09:46:25;;;;;;;6.75;6.15;;;;;;;;;;5075337;28;20031;-63
2022/07/23 09:52:27;;;;;;;6.22;5.70;;;;;;;;;;5075293;28;20030;-63
2022/07/23 09:58:28;;;;;;;9.73;6.95;;;;;;;;;;5075359;28;20074;-63
2022/07/23 10:04:29;;;;;;;8.30;7.35;;;;;;;;;;5075154;28;20034;-63
2022/07/23 10:10:50;;;;;;;8.68;6.95;;;;;;;;;;5033196;28;20032;-63
2022/07/23 10:16:56;;;;;;;16.08;7.43;;;;;;;;;;5033204;28;20624;-68
2022/07/23 10:30:06;;;;;;;7.90;7.20;;;;;;;;;;5052558;28;20070;-68
2022/07/23 10:36:21;;;;;;;7.60;6.90;;;;;;;;;;5052616;28;20516;-68
2022/07/23 10:49:33;;;;;;;8.65;7.32;;;;;;;;;;5052236;28;20111;-71
2022/07/23 10:52:32;;;;;;;7.82;6.95;;;;;;;;;;5052611;28;20029;-71
2022/07/23 10:58:45;;;;;;;7.20;6.60;;;;;;;;;;5052261;28;20031;-71
2022/07/23 11:04:49;;;;;;;6.95;6.00;;;;;;;;;;5051993;28;20455;-71
2022/07/23 11:10:55;;;;;;;6.45;5.80;;;;;;;;;;5051919;28;20040;-71
2022/07/23 11:16:30;;;;;;;7.07;6.38;;;;;;;;;;5063446;28;20087;-71
2022/07/23 11:18:57;;;;;;;6.88;6.38;;;;;;;;;;5070774;28;20055;-71
2022/07/23 11:21:31;;;;;;;6.50;6.00;;;;;;;;;;5070641;28;20025;-71
2022/07/23 11:23:56;;;;;;;7.05;6.45;;;;;;;;;;5070933;28;20067;-68
2022/07/23 11:26:49;;;;;;;6.90;6.18;;;;;;;;;;5068105;28;20068;-71
2022/07/23 11:29:36;;;;;;;6.82;6.20;;;;;;;;;;5067514;28;20041;-71
2022/07/23 11:32:05;;;;;;;8.52;5.97;;;;;;;;;;5070302;28;20119;-71
2022/07/23 11:34:43;;;;;;;6.47;6.00;;;;;;;;;;5069678;28;20028;-71
2022/07/23 11:37:10;;;;;;;6.47;5.88;;;;;;;;;;5069395;28;20028;-71
2022/07/23 11:39:35;;;;;;;7.38;5.93;;;;;;;;;;5069938;28;20076;-71
2022/07/23 11:42:04;;;;;;;6.70;6.05;;;;;;;;;;5072982;28;20068;-71
2022/07/23 11:44:34;;;;;;;6.72;6.15;;;;;;;;;;5073958;28;20059;-71
2022/07/23 11:50:35;;;;;;;6.25;5.82;;;;;;;;;;5077828;28;20027;-71
2022/07/23 11:56:36;;;;;;;6.72;6.13;;;;;;;;;;5077699;28;20036;-71
2022/07/23 12:02:41;;;;;;;6.68;6.03;;;;;;;;;;5077620;28;20134;-71
2022/07/23 12:08:42;;;;;;;6.65;6.22;;;;;;;;;;5077469;28;20036;-71
2022/07/23 12:14:55;;;;;;;6.40;5.90;;;;;;;;;;5077379;28;20507;-71
2022/07/23 12:20:56;;;;;;;7.70;6.95;;;;;;;;;;5077236;28;20026;-71
2022/07/23 12:30:47;;;;;;;6.43;5.82;;;;;;;;;;5077054;28;20034;-71
2022/07/23 12:36:48;;;;;;;6.97;6.38;;;;;;;;;;5076907;28;20039;-71
2022/07/23 12:42:50;;;;;;;6.75;6.15;;;;;;;;;;5076822;28;20153;-72
2022/07/23 12:48:52;;;;;;;7.90;7.15;;;;;;;;;;5076736;28;20081;-72
2022/07/23 12:54:53;;;;;;;8.15;7.45;;;;;;;;;;5075597;28;20555;-72
2022/07/23 12:57:19;;;;;;;7.43;6.72;;;;;;;;;;5071835;28;20120;-72
2022/07/23 12:59:44;;;;;;;7.40;6.72;;;;;;;;;;5071516;28;20081;-72
2022/07/23 13:02:09;;;;;;;7.53;6.82;;;;;;;;;;5071137;28;20621;-73
2022/07/23 13:04:35;;;;;;;8.07;6.85;;;;;;;;;;5071141;28;20395;-72
2022/07/23 13:07:01;;;;;;;7.57;6.95;;;;;;;;;;5072311;28;20549;-71
2022/07/23 13:09:30;;;;;;;10.20;9.10;;;;;;;;;;5076064;28;20012;-71
2022/07/23 13:15:30;;;;;;;8.73;7.93;;;;;;;;;;5076242;28;20498;-72
2022/07/23 13:21:31;;;;;;;9.25;7.22;;;;;;;;;;5076149;28;20103;-72
2022/07/23 13:31:20;;;;;;;8.60;7.70;;;;;;;;;;5075674;28;20038;-73
2022/07/23 13:37:20;;;;;;;8.48;7.68;;;;;;;;;;5075572;28;20085;-70
2022/07/23 13:43:22;;;;;;;8.45;7.55;;;;;;;;;;5075731;28;20475;-68
2022/07/23 13:46:10;;;;;;;8.20;7.32;;;;;;;;;;5067670;28;20028;-68
2022/07/23 13:48:45;;;;;;;8.65;7.82;;;;;;;;;;5043559;28;20036;-69
2022/07/23 13:51:10;;;;;;;8.48;7.68;;;;;;;;;;5065488;28;20025;-72
2022/07/23 13:53:38;;;;;;;8.18;7.38;;;;;;;;;;5065001;28;20480;-71
2022/07/23 13:56:03;;;;;;;8.38;7.50;;;;;;;;;;5072276;28;20040;-72
2022/07/23 13:58:28;;;;;;;8.63;7.63;;;;;;;;;;5071506;28;20043;-72
2022/07/23 14:00:54;;;;;;;13.07;11.32;;;;;;;;;;5072192;28;20108;-72
2022/07/23 14:03:22;;;;;;;14.70;13.20;;;;;;;;;;5072340;28;20050;-71
2022/07/23 14:05:48;;;;;;;33.38;29.77;;;;;;;;;;5069026;28;20025;-72
2022/07/23 14:08:13;;;;;;;15.65;14.15;;;;;;;;;;5034620;28;20400;-73
2022/07/23 14:10:39;;;;;;;18.98;15.88;;;;;;;;;;5069761;28;20025;-72
2022/07/23 14:13:04;;;;;;;12.20;11.07;;;;;;;;;;5068911;28;20074;-72
2022/07/23 14:15:31;;;;;;;9.07;8.25;;;;;;;;;;5071800;28;20070;-72
2022/07/23 14:21:31;;;;;;;11.40;8.35;;;;;;;;;;5074907;28;20071;-72
2022/07/23 14:27:31;;;;;;;9.15;8.25;;;;;;;;;;5073567;28;20210;-72
2022/07/23 14:29:57;;;;;;;8.25;7.18;;;;;;;;;;5070260;28;20020;-72
2022/07/23 14:32:23;;;;;;;7.43;6.82;;;;;;;;;;5067421;28;20089;-72
2022/07/23 14:34:48;;;;;;;8.07;7.35;;;;;;;;;;5065345;28;20460;-72
2022/07/23 14:37:14;;;;;;;8.18;7.47;;;;;;;;;;5068905;28;20038;-72
2022/07/23 14:39:40;;;;;;;7.68;6.90;;;;;;;;;;5071746;28;20502;-72
2022/07/23 14:42:06;;;;;;;7.70;6.68;;;;;;;;;;5071636;28;20025;-71
2022/07/23 14:44:32;;;;;;;11.13;6.88;;;;;;;;;;5071428;28;20028;-71
2022/07/23 14:46:57;;;;;;;7.35;6.25;;;;;;;;;;5071658;28;20020;-72
2022/07/23 14:49:23;;;;;;;12.13;6.60;;;;;;;;;;5071740;28;20380;-72
2022/07/23 14:51:49;;;;;;;15.88;6.50;;;;;;;;;;5071481;28;20021;-72
2022/07/23 14:54:14;;;;;;;16.13;7.10;;;;;;;;;;5071411;28;20078;-72
2022/07/23 14:56:40;;;;;;;20.05;6.95;;;;;;;;;;5070991;28;20070;-72
2022/07/23 14:59:06;;;;;;;18.00;7.60;;;;;;;;;;5069949;28;20067;-72
2022/07/23 15:01:31;;;;;;;9.88;6.55;;;;;;;;;;5070034;28;20051;-72
2022/07/23 15:03:57;;;;;;;18.00;7.72;;;;;;;;;;5070009;28;20016;-72
2022/07/23 15:06:22;;;;;;;20.52;7.72;;;;;;;;;;5069557;28;20020;-71
2022/07/23 15:08:48;;;;;;;13.00;6.50;;;;;;;;;;5069320;28;20024;-72
2022/07/23 15:11:13;;;;;;;12.45;7.20;;;;;;;;;;5069583;28;20823;-72
2022/07/23 15:13:39;;;;;;;11.38;6.13;;;;;;;;;;5069697;28;20040;-72
2022/07/23 15:16:05;;;;;;;15.35;7.75;;;;;;;;;;5069349;28;20028;-71
2022/07/23 15:18:30;;;;;;;12.77;7.15;;;;;;;;;;5070095;28;20043;-72
2022/07/23 15:20:56;;;;;;;23.05;10.38;;;;;;;;;;5069737;28;20017;-71
2022/07/23 15:23:22;;;;;;;15.02;7.38;;;;;;;;;;5069225;28;20043;-72
2022/07/23 15:25:48;;;;;;;9.30;6.32;;;;;;;;;;5069801;28;20028;-72
2022/07/23 15:28:14;;;;;;;13.48;7.43;;;;;;;;;;5071510;28;20044;-73
2022/07/23 15:30:42;;;;;;;12.50;8.70;;;;;;;;;;5073735;28;20031;-72
2022/07/23 15:33:14;;;;;;;9.27;7.70;;;;;;;;;;5055700;28;20716;-73
2022/07/23 15:35:43;;;;;;;16.20;7.38;;;;;;;;;;5074153;28;20107;-73
2022/07/23 15:38:08;;;;;;;8.85;6.97;;;;;;;;;;5074036;28;20040;-73
2022/07/23 15:40:38;;;;;;;7.40;6.60;;;;;;;;;;5073918;28;20036;-73
2022/07/23 15:43:07;;;;;;;6.72;6.22;;;;;;;;;;5072865;28;20035;-73
2022/07/23 15:45:36;;;;;;;7.93;6.97;;;;;;;;;;5073207;28;20029;-73
2022/07/23 15:48:05;;;;;;;14.15;8.60;;;;;;;;;;5073624;28;20746;-72
2022/07/23 15:50:32;;;;;;;8.27;6.05;;;;;;;;;;5055396;28;20021;-73
2022/07/23 15:52:59;;;;;;;13.90;8.25;;;;;;;;;;5073256;28;20032;-73
2022/07/23 15:55:29;;;;;;;8.75;7.35;;;;;;;;;;5072627;28;20028;-73
2022/07/23 15:57:58;;;;;;;15.27;13.73;;;;;;;;;;5072503;28;20074;-73
2022/07/23 16:00:25;;;;;;;10.98;9.82;;;;;;;;;;5070103;28;20570;-73
2022/07/23 16:02:51;;;;;;;13.18;11.15;;;;;;;;;;5069129;28;20063;-72
2022/07/23 16:05:17;;;;;;;52.65;36.03;;;;;;;;;;5051648;28;20040;-72
2022/07/23 16:07:43;;;;;;;58.28;40.05;;;;;;;;;;5051721;28;20024;-74
2022/07/23 16:10:10;;;;;;;9.13;8.20;;;;;;;;;;5069786;28;20026;-73
2022/07/23 16:12:48;;;;;;;16.90;13.00;;;;;;;;;;5069330;28;20032;-72
2022/07/23 16:15:27;;;;;;;7.88;7.18;;;;;;;;;;5069534;28;20849;-73
2022/07/23 16:17:55;;;;;;;8.27;6.93;;;;;;;;;;5070158;28;20029;-73
2022/07/23 16:20:20;;;;;;;12.55;10.10;;;;;;;;;;5054458;28;20504;-73
2022/07/23 16:22:47;;;;;;;7.63;6.18;;;;;;;;;;5071096;28;20036;-73
2022/07/23 16:25:13;;;;;;;7.78;7.00;;;;;;;;;;5051270;28;20031;-72
2022/07/23 16:27:40;;;;;;;16.75;9.32;;;;;;;;;;5069087;28;20115;-72
2022/07/23 16:30:06;;;;;;;12.57;8.93;;;;;;;;;;5069439;28;20032;-72
2022/07/23 16:32:32;;;;;;;17.00;9.52;;;;;;;;;;5053677;28;20036;-72
2022/07/23 16:34:58;;;;;;;46.15;23.58;;;;;;;;;;5074344;28;20029;-72
2022/07/23 16:37:24;;;;;;;134.25;57.53;;;;;;;;;;5074085;28;20526;-72
2022/07/23 16:39:49;;;;;;;9.60;7.15;;;;;;;;;;5073450;28;20033;-72
2022/07/23 16:42:15;;;;;;;7.78;6.97;;;;;;;;;;5072702;28;20040;-72
2022/07/23 16:44:40;;;;;;;7.95;6.60;;;;;;;;;;5073474;28;20021;-72
2022/07/23 16:47:07;;;;;;;6.72;6.07;;;;;;;;;;5073280;28;20460;-72
2022/07/23 16:49:34;;;;;;;7.43;6.80;;;;;;;;;;5073830;28;20021;-73
2022/07/23 16:51:59;;;;;;;6.85;6.15;;;;;;;;;;5072841;28;20089;-72
2022/07/23 16:54:25;;;;;;;7.68;6.88;;;;;;;;;;5073784;28;20020;-73
2022/07/23 16:56:50;;;;;;;7.05;6.45;;;;;;;;;;5074062;28;20032;-72
2022/07/23 16:59:16;;;;;;;9.90;7.50;;;;;;;;;;5073886;28;20025;-73
2022/07/23 17:01:41;;;;;;;8.30;6.93;;;;;;;;;;5072976;28;20037;-72
2022/07/23 17:04:07;;;;;;;9.00;7.03;;;;;;;;;;5073427;28;20023;-72
2022/07/23 17:06:33;;;;;;;8.30;6.63;;;;;;;;;;5055354;28;20119;-72
2022/07/23 17:08:59;;;;;;;8.75;7.95;;;;;;;;;;5073668;28;20154;-72
2022/07/23 17:11:24;;;;;;;8.68;7.82;;;;;;;;;;5073516;28;20111;-72
2022/07/23 17:13:50;;;;;;;30.48;8.20;;;;;;;;;;5072976;28;20063;-72
2022/07/23 17:16:15;;;;;;;12.15;7.97;;;;;;;;;;5072781;28;20040;-72
2022/07/23 17:18:41;;;;;;;14.18;12.75;;;;;;;;;;5073344;28;20021;-72
2022/07/23 17:21:06;;;;;;;12.30;9.70;;;;;;;;;;5073181;28;20602;-72
2022/07/23 17:23:31;;;;;;;13.43;11.90;;;;;;;;;;5072949;28;20020;-72